Time;durP1;ratioP1;P1;durP2;ratioP2;P2;SDS_P1;SDS_P2;PMS_P1;PMS_P2;Temp;Humidity;BMP_temperature;BMP_pressure;BME280_temperature;BME280_humidity;BME280_pressure;Samples;Min_cycle;Max_cycle;Signal;HPM_P1;HPM_P2
2023/09/11 00:01:31;;;;;;;5.80;3.25;;;25.30;69.00;;;;;;5043223;28;20291;-19
2023/09/11 00:03:57;;;;;;;4.63;3.40;;;25.30;69.00;;;;;;5050146;28;20514;-19
2023/09/11 00:06:25;;;;;;;5.15;3.28;;;25.30;69.10;;;;;;5030775;28;20632;-18
2023/09/11 00:08:51;;;;;;;4.55;3.38;;;25.20;69.10;;;;;;5055465;28;20415;-19
2023/09/11 00:11:17;;;;;;;4.90;3.47;;;25.20;69.20;;;;;;5060737;28;20456;-18
2023/09/11 00:13:43;;;;;;;4.30;3.30;;;25.20;69.30;;;;;;5052882;28;20028;-19
2023/09/11 00:16:08;;;;;;;4.07;3.20;;;25.10;69.30;;;;;;5046357;28;20127;-18
2023/09/11 00:18:34;;;;;;;4.00;3.27;;;25.10;69.50;;;;;;5059011;28;20553;-18
2023/09/11 00:21:00;;;;;;;4.22;3.10;;;25.00;69.50;;;;;;5030996;28;20032;-19
2023/09/11 00:23:26;;;;;;;3.70;3.30;;;25.00;69.60;;;;;;5045977;28;20029;-18
2023/09/11 00:25:52;;;;;;;4.17;2.87;;;25.00;69.60;;;;;;5034197;28;20016;-19
2023/09/11 00:28:18;;;;;;;5.15;3.28;;;24.90;69.70;;;;;;5043092;28;20410;-18
2023/09/11 00:30:44;;;;;;;3.90;3.10;;;24.90;69.70;;;;;;5050699;28;20020;-19
2023/09/11 00:33:10;;;;;;;3.90;3.20;;;24.80;69.80;;;;;;5056086;28;20666;-18
2023/09/11 00:35:36;;;;;;;4.63;2.95;;;24.80;69.90;;;;;;5048189;28;22726;-19
2023/09/11 00:38:02;;;;;;;3.58;3.05;;;24.70;69.90;;;;;;5038479;28;20037;-18
2023/09/11 00:40:28;;;;;;;3.93;3.03;;;24.70;70.00;;;;;;5056338;28;20610;-16
2023/09/11 00:42:53;;;;;;;6.75;3.30;;;24.70;70.20;;;;;;5020743;28;20024;-15
2023/09/11 00:45:19;;;;;;;4.47;2.80;;;24.60;70.20;;;;;;5059663;28;20039;-16
2023/09/11 00:47:46;;;;;;;4.03;2.80;;;24.60;70.30;;;;;;5054450;28;20118;-16
2023/09/11 00:50:15;;;;;;;5.40;3.10;;;24.50;70.30;;;;;;5065722;28;20024;-16
2023/09/11 00:52:42;;;;;;;7.13;3.05;;;24.50;70.40;;;;;;5028108;28;25371;-15
2023/09/11 00:55:09;;;;;;;4.55;3.13;;;24.50;70.50;;;;;;5056883;28;20043;-16
2023/09/11 00:57:35;;;;;;;3.67;2.87;;;24.40;70.60;;;;;;5039157;28;20210;-15
2023/09/11 01:00:03;;;;;;;4.32;3.10;;;24.40;70.40;;;;;;5042652;28;20044;-16
2023/09/11 01:02:29;;;;;;;3.33;2.88;;;24.40;70.60;;;;;;5031550;28;20074;-16
2023/09/11 01:04:55;;;;;;;4.10;3.10;;;24.30;70.50;;;;;;5054695;28;20625;-15
2023/09/11 01:07:21;;;;;;;5.55;3.00;;;24.30;70.70;;;;;;5050308;28;20868;-15
2023/09/11 01:09:47;;;;;;;4.18;3.03;;;24.30;70.90;;;;;;5011385;28;20656;-15
2023/09/11 01:12:13;;;;;;;4.33;3.00;;;24.20;70.90;;;;;;5041706;28;20039;-15
2023/09/11 01:14:39;;;;;;;4.53;3.00;;;24.20;70.90;;;;;;5055612;28;20535;-17
2023/09/11 01:17:40;;;;;;;4.40;3.30;;;24.10;71.00;;;;;;5014819;28;20032;-15
2023/09/11 01:20:32;;;;;;;3.70;2.80;;;24.10;72.90;;;;;;5046372;28;20457;-15
2023/09/11 01:23:35;;;;;;;4.28;2.70;;;24.10;71.00;;;;;;5031935;28;20046;-16
2023/09/11 01:26:38;;;;;;;3.95;2.88;;;24.10;72.70;;;;;;5052560;28;20242;-16
2023/09/11 01:29:09;;;;;;;5.60;2.88;;;24.10;72.70;;;;;;5050576;28;20032;-15
2023/09/11 01:31:37;;;;;;;4.75;3.00;;;24.00;71.60;;;;;;5061436;28;20048;-16
2023/09/11 01:34:07;;;;;;;3.80;2.70;;;23.90;71.40;;;;;;5050352;28;20033;-15
2023/09/11 01:36:32;;;;;;;5.75;2.90;;;25.00;74.70;;;;;;5060630;28;20024;-16
2023/09/11 01:38:59;;;;;;;3.78;3.05;;;23.90;71.40;;;;;;5035590;28;20725;-15
2023/09/11 01:41:37;;;;;;;3.90;2.75;;;23.90;71.60;;;;;;5058183;28;20089;-18
2023/09/11 01:44:30;;;;;;;4.05;3.00;;;23.80;72.50;;;;;;5056231;28;20482;-19
2023/09/11 01:46:57;;;;;;;4.50;3.00;;;23.80;73.10;;;;;;5047361;28;20129;-19
2023/09/11 01:49:25;;;;;;;3.88;3.20;;;23.80;71.80;;;;;;5046493;28;20033;-18
2023/09/11 01:51:54;;;;;;;4.82;2.85;;;23.80;71.90;;;;;;5054324;28;20021;-16
2023/09/11 01:54:21;;;;;;;4.07;2.95;;;23.80;72.40;;;;;;5037396;28;20029;-15
2023/09/11 01:56:47;;;;;;;4.20;2.90;;;23.70;72.00;;;;;;5052137;28;20034;-15
2023/09/11 01:59:14;;;;;;;4.60;3.10;;;23.70;72.10;;;;;;5060463;28;20048;-16
2023/09/11 02:01:40;;;;;;;5.07;2.92;;;23.60;72.20;;;;;;5046647;28;20410;-16
2023/09/11 02:04:06;;;;;;;4.53;2.85;;;23.60;72.30;;;;;;5058398;28;20036;-15
2023/09/11 02:06:32;;;;;;;4.53;3.15;;;23.60;72.40;;;;;;5047487;28;20119;-16
2023/09/11 02:08:58;;;;;;;4.30;3.07;;;23.50;72.50;;;;;;5035729;28;21263;-15
2023/09/11 02:11:24;;;;;;;5.45;3.13;;;23.50;72.70;;;;;;5053948;28;20142;-16
2023/09/11 02:13:51;;;;;;;4.07;3.30;;;23.40;72.90;;;;;;5054033;28;20385;-15
2023/09/11 02:16:17;;;;;;;4.20;3.20;;;23.40;73.00;;;;;;5057137;28;20039;-15
2023/09/11 02:18:43;;;;;;;3.70;2.90;;;23.40;73.10;;;;;;5048414;28;20337;-15
2023/09/11 02:21:08;;;;;;;3.92;2.90;;;23.40;73.10;;;;;;5029578;28;20283;-16
2023/09/11 02:23:34;;;;;;;4.43;3.10;;;23.30;73.20;;;;;;5061816;28;20055;-15
2023/09/11 02:26:00;;;;;;;6.53;2.90;;;23.30;73.30;;;;;;5030901;28;20044;-16
2023/09/11 02:28:27;;;;;;;5.30;3.07;;;23.30;73.40;;;;;;5050884;28;20025;-15
2023/09/11 02:30:53;;;;;;;3.75;2.90;;;23.30;73.50;;;;;;5051612;28;20044;-16
2023/09/11 02:33:19;;;;;;;4.85;3.05;;;23.30;73.60;;;;;;5051123;28;20024;-15
2023/09/11 02:35:51;;;;;;;3.47;3.03;;;23.20;73.50;;;;;;5051829;28;20051;-16
2023/09/11 02:38:16;;;;;;;3.67;2.83;;;23.30;73.60;;;;;;5035852;28;20119;-15
2023/09/11 02:40:42;;;;;;;3.80;2.83;;;23.20;73.60;;;;;;5041903;28;20043;-16
2023/09/11 02:43:08;;;;;;;4.67;2.90;;;23.20;73.70;;;;;;5047925;28;20120;-16
2023/09/11 02:45:33;;;;;;;4.13;2.90;;;23.10;73.70;;;;;;5041393;28;20079;-15
2023/09/11 02:47:59;;;;;;;4.07;2.80;;;23.10;73.70;;;;;;5047630;28;20033;-16
2023/09/11 02:50:25;;;;;;;4.30;2.80;;;23.10;73.80;;;;;;5052360;28;20040;-15
2023/09/11 02:52:52;;;;;;;3.85;2.85;;;23.10;73.90;;;;;;5046690;28;20035;-18
2023/09/11 02:55:18;;;;;;;3.50;2.80;;;23.10;73.90;;;;;;5037798;28;20036;-19
2023/09/11 02:57:44;;;;;;;3.92;2.75;;;23.00;74.00;;;;;;5043880;28;20037;-18
2023/09/11 03:00:10;;;;;;;4.57;2.90;;;23.00;74.00;;;;;;5055484;28;20028;-18
2023/09/11 03:02:36;;;;;;;3.80;2.50;;;23.00;74.10;;;;;;5060647;28;20077;-15
2023/09/11 03:05:02;;;;;;;4.20;2.70;;;23.00;74.10;;;;;;5055966;28;20048;-16
2023/09/11 03:07:28;;;;;;;3.92;2.60;;;23.00;74.20;;;;;;5054816;28;20032;-15
2023/09/11 03:09:53;;;;;;;4.47;2.73;;;22.90;74.10;;;;;;5053158;28;20037;-16
2023/09/11 03:12:19;;;;;;;4.55;2.83;;;22.90;74.20;;;;;;5048884;28;20253;-15
2023/09/11 03:14:45;;;;;;;4.70;2.83;;;22.90;74.30;;;;;;5064831;28;20272;-16
2023/09/11 03:17:13;;;;;;;5.93;2.80;;;22.90;74.40;;;;;;5050497;28;20478;-15
2023/09/11 03:19:39;;;;;;;3.35;2.47;;;22.80;74.40;;;;;;5055246;28;20037;-16
2023/09/11 03:22:05;;;;;;;3.53;2.65;;;22.80;74.50;;;;;;5046299;28;20148;-15
2023/09/11 03:24:31;;;;;;;4.83;2.90;;;22.80;74.50;;;;;;5064639;28;20031;-15
2023/09/11 03:26:56;;;;;;;4.00;2.70;;;22.80;74.60;;;;;;5040357;28;20028;-16
2023/09/11 03:29:22;;;;;;;5.07;2.80;;;22.80;74.60;;;;;;5056815;28;20207;-16
2023/09/11 03:31:48;;;;;;;4.20;2.80;;;22.80;74.70;;;;;;5057016;28;20125;-16
2023/09/11 03:34:14;;;;;;;3.97;2.80;;;22.80;74.70;;;;;;5048248;28;20470;-15
2023/09/11 03:36:40;;;;;;;4.70;3.15;;;22.70;74.70;;;;;;5070476;28;20023;-15
2023/09/11 03:39:06;;;;;;;4.05;2.95;;;22.70;74.90;;;;;;5051065;28;20214;-15
2023/09/11 03:41:32;;;;;;;4.50;2.60;;;22.70;74.90;;;;;;5063220;28;20388;-15
2023/09/11 03:43:58;;;;;;;5.65;2.92;;;22.60;74.90;;;;;;5008509;28;20036;-16
2023/09/11 03:46:24;;;;;;;4.18;2.90;;;22.60;74.90;;;;;;5063514;28;20039;-16
2023/09/11 03:48:50;;;;;;;4.67;2.87;;;22.60;75.00;;;;;;5056200;28;20024;-16
2023/09/11 03:51:16;;;;;;;4.50;2.75;;;22.60;75.00;;;;;;5030051;28;20092;-16
2023/09/11 03:53:42;;;;;;;4.10;2.65;;;22.50;75.00;;;;;;5050973;28;20020;-15
2023/09/11 03:56:14;;;;;;;4.07;2.90;;;22.50;75.10;;;;;;5061024;28;20181;-15
2023/09/11 03:58:42;;;;;;;4.63;2.90;;;22.50;75.90;;;;;;5041966;28;20784;-16
2023/09/11 04:01:08;;;;;;;4.30;2.80;;;22.50;75.40;;;;;;5058076;28;20200;-18
2023/09/11 04:03:34;;;;;;;3.75;2.80;;;22.50;75.20;;;;;;5058218;28;20241;-18
2023/09/11 04:05:59;;;;;;;5.50;3.03;;;22.40;75.20;;;;;;5031937;28;20031;-18
2023/09/11 04:08:25;;;;;;;4.15;2.75;;;22.40;75.40;;;;;;5052805;28;20111;-18
2023/09/11 04:10:51;;;;;;;3.78;2.58;;;22.30;75.30;;;;;;5057329;28;20048;-18
2023/09/11 04:13:17;;;;;;;4.40;2.58;;;22.30;75.40;;;;;;5044314;28;20701;-18
2023/09/11 04:15:43;;;;;;;3.93;2.70;;;22.30;76.20;;;;;;5041101;28;20032;-18
2023/09/11 04:18:09;;;;;;;3.72;2.83;;;22.20;75.50;;;;;;5049515;28;20775;-18
2023/09/11 04:20:35;;;;;;;4.37;2.70;;;22.20;75.50;;;;;;5056001;28;20012;-18
2023/09/11 04:23:02;;;;;;;4.53;2.63;;;22.20;75.50;;;;;;5033570;28;20078;-18
2023/09/11 04:25:28;;;;;;;4.75;2.67;;;22.20;76.00;;;;;;5058452;28;20121;-18
2023/09/11 04:27:54;;;;;;;4.10;2.85;;;22.10;75.60;;;;;;5047310;28;20465;-18
2023/09/11 04:30:20;;;;;;;4.27;2.70;;;22.10;75.60;;;;;;5020277;28;20132;-18
2023/09/11 04:32:46;;;;;;;5.28;2.90;;;22.10;76.50;;;;;;5032061;28;20106;-18
2023/09/11 04:35:11;;;;;;;3.87;2.43;;;22.10;75.80;;;;;;5026447;28;20551;-19
2023/09/11 04:37:37;;;;;;;3.88;2.53;;;22.00;75.90;;;;;;5059918;28;20020;-18
2023/09/11 04:40:06;;;;;;;3.60;2.58;;;22.00;75.90;;;;;;5043618;28;20036;-18
2023/09/11 04:42:33;;;;;;;4.23;2.80;;;22.00;76.10;;;;;;5036370;28;20426;-18
2023/09/11 04:44:59;;;;;;;3.65;2.78;;;22.00;76.10;;;;;;5037039;28;20028;-18
2023/09/11 04:47:32;;;;;;;3.88;2.63;;;21.90;76.10;;;;;;5062248;28;20102;-18
2023/09/11 04:49:58;;;;;;;4.03;2.80;;;22.00;76.30;;;;;;5054425;28;20131;-18
2023/09/11 04:52:25;;;;;;;5.45;2.78;;;22.00;76.40;;;;;;5054062;28;20203;-18
2023/09/11 04:54:50;;;;;;;3.83;2.73;;;21.90;76.30;;;;;;5030272;28;20028;-18
2023/09/11 04:57:16;;;;;;;3.95;3.00;;;21.90;76.40;;;;;;5056376;28;20718;-18
2023/09/11 04:59:42;;;;;;;4.03;2.53;;;21.90;76.40;;;;;;5039634;28;20498;-18
2023/09/11 05:02:11;;;;;;;3.85;2.58;;;21.90;76.40;;;;;;5027638;28;20041;-18
2023/09/11 05:04:39;;;;;;;3.80;2.80;;;21.80;76.40;;;;;;5053298;28;20040;-18
2023/09/11 05:07:05;;;;;;;4.20;2.67;;;21.90;76.70;;;;;;5044206;28;20751;-18
2023/09/11 05:09:32;;;;;;;5.22;2.72;;;21.90;76.60;;;;;;5030328;28;20118;-18
2023/09/11 05:11:58;;;;;;;4.30;2.80;;;21.90;76.80;;;;;;5042687;28;20350;-18
2023/09/11 05:14:24;;;;;;;4.38;2.80;;;21.80;76.80;;;;;;5061902;28;20480;-18
2023/09/11 05:16:50;;;;;;;3.83;2.90;;;21.80;76.80;;;;;;5033134;28;20089;-18
2023/09/11 05:19:16;;;;;;;3.80;2.72;;;21.80;76.90;;;;;;5056682;28;20036;-18
2023/09/11 05:21:42;;;;;;;3.77;2.53;;;21.80;77.10;;;;;;5026479;28;20036;-16
2023/09/11 05:24:08;;;;;;;4.97;2.85;;;21.80;77.20;;;;;;5045392;28;20162;-15
2023/09/11 05:26:34;;;;;;;4.78;2.97;;;21.70;77.20;;;;;;5031370;28;20303;-16
2023/09/11 05:28:59;;;;;;;4.57;3.00;;;21.70;77.40;;;;;;5052752;28;20033;-15
2023/09/11 05:31:25;;;;;;;3.50;2.92;;;21.70;77.50;;;;;;5023750;28;20036;-16
2023/09/11 05:33:51;;;;;;;3.88;2.67;;;21.70;77.60;;;;;;5057558;28;20504;-16
2023/09/11 05:36:17;;;;;;;5.90;2.83;;;21.70;77.80;;;;;;5048827;28;20024;-16
2023/09/11 05:38:43;;;;;;;4.38;2.75;;;21.70;77.90;;;;;;5031248;28;20476;-15
2023/09/11 05:41:09;;;;;;;5.85;2.90;;;21.70;78.00;;;;;;5026158;28;20052;-16
2023/09/11 05:43:36;;;;;;;4.77;3.13;;;21.80;78.90;;;;;;5047491;28;23188;-15
2023/09/11 05:46:02;;;;;;;5.30;2.70;;;21.80;78.20;;;;;;5059244;28;20025;-15
2023/09/11 05:48:28;;;;;;;4.57;2.88;;;23.40;82.80;;;;;;5033370;28;20403;-15
2023/09/11 05:50:53;;;;;;;3.90;2.80;;;21.80;78.40;;;;;;5042452;28;20020;-15
2023/09/11 05:53:19;;;;;;;3.90;2.90;;;21.90;78.40;;;;;;5042618;28;20035;-16
2023/09/11 05:55:45;;;;;;;3.60;2.97;;;21.90;78.50;;;;;;5031250;28;20044;-16
2023/09/11 05:58:11;;;;;;;4.93;2.90;;;22.00;78.60;;;;;;5054311;28;20148;-16
2023/09/11 06:00:37;;;;;;;4.55;3.13;;;22.00;78.60;;;;;;5053120;28;20059;-19
2023/09/11 06:03:03;;;;;;;5.30;3.23;;;22.00;78.60;;;;;;5036373;28;20032;-15
2023/09/11 06:05:30;;;;;;;4.13;2.88;;;22.60;80.10;;;;;;5058179;28;20122;-16
2023/09/11 06:07:56;;;;;;;5.43;3.20;;;22.10;78.80;;;;;;5044846;28;20212;-15
2023/09/11 06:10:23;;;;;;;4.97;2.87;;;22.10;78.60;;;;;;5055729;28;20033;-15
2023/09/11 06:12:48;;;;;;;4.20;2.90;;;22.10;78.70;;;;;;5037621;28;20024;-15
2023/09/11 06:15:14;;;;;;;5.38;3.10;;;22.10;78.80;;;;;;5054756;28;20024;-15
2023/09/11 06:17:40;;;;;;;3.30;2.80;;;22.20;78.90;;;;;;5031688;28;20482;-16
2023/09/11 06:20:09;;;;;;;5.35;3.00;;;22.20;78.90;;;;;;5034973;28;20043;-15
2023/09/11 06:22:38;;;;;;;3.80;2.90;;;22.20;79.10;;;;;;5044512;28;20086;-16
2023/09/11 06:25:04;;;;;;;4.47;3.10;;;22.20;79.40;;;;;;5067474;28;20090;-15
2023/09/11 06:27:31;;;;;;;4.78;2.95;;;22.30;79.10;;;;;;5042661;28;20047;-16
2023/09/11 06:29:57;;;;;;;6.00;3.17;;;22.30;79.30;;;;;;5057332;28;20024;-15
2023/09/11 06:32:23;;;;;;;5.90;3.70;;;22.40;79.30;;;;;;5036549;28;20023;-15
2023/09/11 06:34:48;;;;;;;5.72;3.30;;;22.40;79.30;;;;;;5036481;28;20021;-16
2023/09/11 06:37:14;;;;;;;5.40;3.57;;;22.40;79.40;;;;;;5044330;28;20027;-16
2023/09/11 06:39:40;;;;;;;4.75;3.35;;;22.50;79.60;;;;;;5036488;28;20476;-16
2023/09/11 06:42:06;;;;;;;6.07;3.40;;;22.60;79.80;;;;;;5047252;28;20048;-15
2023/09/11 06:44:31;;;;;;;5.82;3.42;;;22.60;79.80;;;;;;5059406;28;20036;-15
2023/09/11 06:46:57;;;;;;;5.18;3.70;;;22.70;80.00;;;;;;5052604;28;20028;-16
2023/09/11 06:49:24;;;;;;;5.97;3.70;;;22.70;79.90;;;;;;5039370;28;20062;-15
2023/09/11 06:51:49;;;;;;;5.55;3.35;;;22.80;79.90;;;;;;5043680;28;20029;-16
2023/09/11 06:54:16;;;;;;;5.63;3.65;;;22.90;79.90;;;;;;5051275;28;20028;-16
2023/09/11 06:56:42;;;;;;;6.23;3.30;;;22.90;80.00;;;;;;5042655;28;20036;-16
2023/09/11 06:59:08;;;;;;;4.97;3.40;;;23.00;80.20;;;;;;5047535;28;20115;-16
2023/09/11 07:01:38;;;;;;;5.03;3.47;;;23.10;80.30;;;;;;5059441;28;20135;-16
2023/09/11 07:04:11;;;;;;;5.22;3.70;;;23.20;80.50;;;;;;5030226;28;20060;-15
2023/09/11 07:06:38;;;;;;;6.00;3.60;;;23.30;81.30;;;;;;5061849;28;20012;-15
2023/09/11 07:09:05;;;;;;;6.88;3.78;;;23.50;82.20;;;;;;5043981;28;20257;-16
2023/09/11 07:11:31;;;;;;;5.72;3.65;;;23.70;82.90;;;;;;5052235;28;20090;-17
2023/09/11 07:13:57;;;;;;;5.30;3.73;;;24.00;83.20;;;;;;5043542;28;20020;-17
2023/09/11 07:16:22;;;;;;;5.93;3.63;;;24.30;82.80;;;;;;5057860;28;20056;-16
2023/09/11 07:18:49;;;;;;;5.15;3.72;;;24.50;82.00;;;;;;5037080;28;20136;-16
2023/09/11 07:21:14;;;;;;;5.53;3.58;;;24.70;81.30;;;;;;5033891;28;20648;-16
2023/09/11 07:23:40;;;;;;;6.20;3.73;;;24.90;80.90;;;;;;5046018;28;20029;-17
2023/09/11 07:26:06;;;;;;;5.18;3.63;;;25.10;81.70;;;;;;5049301;28;20684;-15
2023/09/11 07:28:33;;;;;;;4.67;3.60;;;25.30;83.00;;;;;;5044983;28;20044;-16
2023/09/11 07:30:59;;;;;;;4.95;3.63;;;25.70;84.00;;;;;;5042354;28;20311;-15
2023/09/11 07:33:25;;;;;;;9.55;4.10;;;26.00;83.60;;;;;;5056049;28;20048;-19
2023/09/11 07:35:51;;;;;;;5.32;3.55;;;26.40;83.60;;;;;;5034312;28;20021;-19
2023/09/11 07:38:20;;;;;;;7.07;3.80;;;26.70;82.80;;;;;;5052563;28;20393;-19
2023/09/11 07:40:45;;;;;;;7.15;3.92;;;27.00;81.90;;;;;;5038664;28;20032;-18
2023/09/11 07:43:11;;;;;;;7.47;4.13;;;27.30;82.20;;;;;;5055909;28;20059;-19
2023/09/11 07:45:37;;;;;;;6.03;3.90;;;27.60;82.60;;;;;;5050074;28;20032;-19
2023/09/11 07:48:03;;;;;;;4.72;3.90;;;28.00;82.70;;;;;;5039208;28;20226;-19
2023/09/11 07:50:29;;;;;;;4.87;3.90;;;28.40;82.70;;;;;;5038714;28;20090;-19
2023/09/11 07:52:55;;;;;;;5.30;3.80;;;28.90;82.70;;;;;;5048037;28;20040;-19
2023/09/11 07:55:20;;;;;;;5.93;3.75;;;29.30;82.20;;;;;;5061219;28;20040;-19
2023/09/11 07:57:46;;;;;;;5.33;3.47;;;29.70;82.00;;;;;;5053200;28;20024;-19
2023/09/11 08:00:13;;;;;;;5.25;3.70;;;30.10;81.50;;;;;;5044678;28;20301;-19
2023/09/11 08:02:38;;;;;;;5.60;3.47;;;30.60;80.70;;;;;;5040491;28;20443;-19
2023/09/11 08:05:04;;;;;;;5.47;4.20;;;31.00;80.10;;;;;;5051543;28;20037;-19
2023/09/11 08:07:30;;;;;;;4.70;4.10;;;31.40;79.20;;;;;;5042270;28;20032;-19
2023/09/11 08:09:58;;;;;;;6.67;4.17;;;31.70;78.40;;;;;;5048751;28;20028;-19
2023/09/11 08:12:23;;;;;;;3.92;3.40;;;32.10;77.60;;;;;;5058743;28;20044;-19
2023/09/11 08:14:49;;;;;;;4.95;3.72;;;32.40;76.50;;;;;;5053998;28;20107;-19
2023/09/11 08:17:15;;;;;;;4.80;3.60;;;32.70;75.80;;;;;;5032478;28;20032;-19
2023/09/11 08:19:41;;;;;;;5.05;4.05;;;33.00;75.30;;;;;;5059103;28;20032;-19
2023/09/11 08:22:07;;;;;;;4.80;3.83;;;33.40;74.90;;;;;;5037614;28;20040;-19
2023/09/11 08:24:32;;;;;;;4.97;3.80;;;33.70;74.00;;;;;;5065467;28;20089;-19
2023/09/11 08:26:58;;;;;;;6.17;4.20;;;34.00;73.30;;;;;;5051464;28;20605;-19
2023/09/11 08:29:25;;;;;;;4.85;3.90;;;34.30;72.50;;;;;;5051934;28;20509;-19
2023/09/11 08:31:51;;;;;;;4.15;3.20;;;34.70;71.70;;;;;;5052008;28;20408;-19
2023/09/11 08:34:17;;;;;;;4.53;3.93;;;35.00;70.70;;;;;;5035869;28;20081;-19
2023/09/11 08:36:43;;;;;;;6.75;4.43;;;35.20;69.40;;;;;;5054231;28;20505;-19
2023/09/11 08:39:09;;;;;;;4.87;4.13;;;35.50;68.40;;;;;;5043547;28;20137;-19
2023/09/11 08:41:36;;;;;;;6.05;4.10;;;35.70;67.50;;;;;;5053844;28;20562;-16
2023/09/11 08:44:02;;;;;;;6.30;4.35;;;35.90;66.70;;;;;;5050558;28;20034;-16
2023/09/11 08:46:31;;;;;;;5.53;4.07;;;36.10;66.40;;;;;;5064559;28;20012;-16
2023/09/11 08:48:59;;;;;;;5.20;4.00;;;36.30;64.40;;;;;;5041919;28;20028;-17
2023/09/11 08:51:36;;;;;;;5.60;3.92;;;36.50;64.50;;;;;;5064195;28;20395;-16
2023/09/11 08:54:04;;;;;;;5.32;4.05;;;36.80;62.00;;;;;;5019395;28;20443;-16
2023/09/11 08:56:31;;;;;;;5.45;4.10;;;36.90;62.00;;;;;;5062103;28;20017;-16
2023/09/11 08:58:58;;;;;;;4.87;3.50;;;37.00;61.90;;;;;;5049428;28;20165;-17
2023/09/11 09:01:26;;;;;;;4.82;4.32;;;37.10;61.90;;;;;;5053124;28;20044;-17
2023/09/11 09:03:52;;;;;;;5.55;4.20;;;37.30;60.50;;;;;;5043930;28;20139;-17
2023/09/11 09:06:18;;;;;;;4.95;4.45;;;37.30;60.10;;;;;;5053777;28;20035;-17
2023/09/11 09:08:46;;;;;;;4.65;4.22;;;37.50;59.80;;;;;;5051441;28;20099;-17
2023/09/11 09:11:12;;;;;;;5.43;4.30;;;37.60;59.10;;;;;;5048149;28;20251;-17
2023/09/11 09:13:38;;;;;;;6.05;4.10;;;37.70;58.90;;;;;;5050417;28;20029;-16
2023/09/11 09:16:04;;;;;;;5.15;3.78;;;37.80;58.60;;;;;;5048735;28;20402;-16
2023/09/11 09:18:30;;;;;;;4.93;4.30;;;38.00;58.60;;;;;;5044490;28;20020;-16
2023/09/11 09:20:56;;;;;;;4.60;3.97;;;38.30;58.00;;;;;;5037618;28;20114;-17
2023/09/11 09:23:39;;;;;;;6.60;4.05;;;38.40;57.50;;;;;;5058186;28;20051;-17
2023/09/11 09:26:06;;;;;;;5.28;3.90;;;38.70;54.80;;;;;;5040015;28;20121;-17
2023/09/11 09:28:33;;;;;;;4.40;4.00;;;38.90;56.60;;;;;;5049112;28;20111;-16
2023/09/11 09:31:01;;;;;;;3.97;3.67;;;39.20;56.20;;;;;;5055098;28;20202;-16
2023/09/11 09:33:27;;;;;;;4.22;3.83;;;39.40;55.20;;;;;;5063039;28;20040;-17
2023/09/11 09:35:53;;;;;;;4.85;4.28;;;39.60;55.00;;;;;;5042302;28;20021;-18
2023/09/11 09:38:22;;;;;;;4.28;3.83;;;39.80;54.40;;;;;;5021620;28;20032;-17
2023/09/11 09:40:50;;;;;;;4.40;3.85;;;40.10;53.30;;;;;;5038070;28;20021;-18
2023/09/11 09:43:19;;;;;;;5.40;4.20;;;40.30;53.40;;;;;;5061530;28;20240;-16
2023/09/11 09:45:45;;;;;;;4.63;3.70;;;40.40;51.50;;;;;;5054782;28;20031;-18
2023/09/11 09:48:14;;;;;;;4.82;4.05;;;40.50;52.00;;;;;;5053943;28;20059;-16
2023/09/11 09:50:59;;;;;;;5.70;3.78;;;40.60;51.10;;;;;;5048251;28;20032;-17
2023/09/11 09:53:41;;;;;;;4.65;4.25;;;40.70;49.50;;;;;;5044874;28;20083;-19
2023/09/11 09:56:08;;;;;;;4.40;4.00;;;40.70;48.80;;;;;;5037422;28;20028;-19
2023/09/11 09:58:40;;;;;;;4.72;3.65;;;40.70;50.00;;;;;;5063409;28;20035;-20
2023/09/11 10:01:15;;;;;;;4.75;3.83;;;40.80;49.50;;;;;;5028552;28;20067;-19
2023/09/11 10:03:46;;;;;;;4.43;3.50;;;40.90;48.60;;;;;;5053686;28;20147;-19
2023/09/11 10:06:16;;;;;;;4.78;4.20;;;41.00;48.80;;;;;;5047830;28;20036;-19
2023/09/11 10:08:42;;;;;;;4.53;3.87;;;41.10;47.80;;;;;;5050262;28;20033;-19
2023/09/11 10:11:25;;;;;;;4.28;3.88;;;41.20;48.30;;;;;;5035334;28;20032;-19
2023/09/11 10:13:52;;;;;;;4.30;3.90;;;41.30;47.90;;;;;;5038476;28;20094;-20
2023/09/11 10:16:17;;;;;;;4.00;3.60;;;41.40;47.50;;;;;;5046828;28;20060;-19
2023/09/11 10:18:45;;;;;;;4.05;3.75;;;41.50;47.40;;;;;;5049368;28;20194;-20
2023/09/11 10:21:11;;;;;;;3.60;3.23;;;41.60;47.00;;;;;;5048366;28;20350;-20
2023/09/11 10:23:37;;;;;;;5.18;3.85;;;41.80;47.00;;;;;;5053775;28;20263;-19
2023/09/11 10:26:07;;;;;;;3.72;3.38;;;41.90;46.60;;;;;;5039401;28;20036;-20
2023/09/11 10:28:39;;;;;;;3.88;3.40;;;42.10;45.90;;;;;;5056054;28;20145;-19
2023/09/11 10:31:16;;;;;;;4.80;3.87;;;42.20;45.20;;;;;;5052203;28;20031;-20
2023/09/11 10:33:45;;;;;;;3.90;3.60;;;42.30;45.20;;;;;;5058102;28;20217;-19
2023/09/11 10:36:13;;;;;;;4.45;3.80;;;42.50;45.00;;;;;;5048259;28;20067;-19
2023/09/11 10:38:46;;;;;;;4.15;3.63;;;42.60;44.70;;;;;;5054107;28;20261;-19
2023/09/11 10:41:13;;;;;;;4.38;3.97;;;42.70;44.20;;;;;;5037315;28;20147;-19
2023/09/11 10:43:39;;;;;;;4.43;3.17;;;42.80;44.30;;;;;;5063297;28;20042;-20
2023/09/11 10:46:21;;;;;;;4.45;3.60;;;43.00;44.10;;;;;;5030737;28;20107;-19
2023/09/11 10:48:47;;;;;;;4.50;4.10;;;43.10;42.30;;;;;;5055821;28;20621;-19
2023/09/11 10:51:14;;;;;;;4.18;3.78;;;43.20;43.50;;;;;;5061207;28;20048;-19
2023/09/11 10:53:40;;;;;;;4.82;4.00;;;43.30;43.20;;;;;;5042405;28;20246;-19
2023/09/11 10:56:07;;;;;;;4.40;3.53;;;43.30;43.00;;;;;;5058141;28;20340;-19
2023/09/11 10:58:34;;;;;;;4.15;3.85;;;43.50;42.60;;;;;;5033261;28;20158;-20
2023/09/11 11:01:03;;;;;;;4.57;3.92;;;43.60;42.10;;;;;;5058738;28;20036;-19
2023/09/11 11:03:30;;;;;;;4.72;3.72;;;43.60;42.00;;;;;;5046501;28;20618;-17
2023/09/11 11:05:58;;;;;;;3.70;3.40;;;43.70;41.70;;;;;;5056370;28;20491;-16
2023/09/11 11:08:24;;;;;;;5.47;3.83;;;43.80;41.20;;;;;;5049589;28;20147;-17
2023/09/11 11:10:55;;;;;;;3.92;3.63;;;43.80;41.20;;;;;;5055770;28;20024;-16
2023/09/11 11:13:22;;;;;;;4.07;3.67;;;43.90;41.10;;;;;;5033129;28;20032;-19
2023/09/11 11:15:47;;;;;;;4.38;3.83;;;44.00;40.60;;;;;;5061242;28;20017;-19
2023/09/11 11:18:26;;;;;;;4.50;4.10;;;44.00;40.30;;;;;;5058391;28;20036;-19
2023/09/11 11:21:04;;;;;;;4.27;3.90;;;44.00;39.00;;;;;;5053537;28;20275;-19
2023/09/11 11:23:32;;;;;;;5.50;3.60;;;44.20;38.90;;;;;;5054159;28;20143;-19
2023/09/11 11:26:06;;;;;;;4.53;4.13;;;44.20;39.80;;;;;;5040108;28;20066;-19
2023/09/11 11:28:45;;;;;;;4.00;3.63;;;44.20;38.50;;;;;;5040900;28;20043;-19
2023/09/11 11:31:21;;;;;;;5.10;3.88;;;44.20;38.10;;;;;;5063888;28;20024;-20
2023/09/11 11:33:51;;;;;;;4.83;3.93;;;44.30;38.50;;;;;;5054041;28;20053;-19
2023/09/11 11:36:20;;;;;;;4.07;3.67;;;44.30;39.40;;;;;;5047399;28;20044;-20
2023/09/11 11:38:47;;;;;;;4.40;4.00;;;44.40;39.10;;;;;;5050725;28;20028;-19
2023/09/11 11:41:13;;;;;;;4.28;3.88;;;44.50;39.30;;;;;;5028475;28;22928;-19
2023/09/11 11:43:43;;;;;;;4.68;4.30;;;44.60;38.90;;;;;;5043551;28;20023;-19
2023/09/11 11:46:10;;;;;;;4.03;3.73;;;44.70;37.80;;;;;;5028216;28;20029;-19
2023/09/11 11:48:37;;;;;;;4.40;4.00;;;44.80;38.20;;;;;;5056076;28;20119;-19
2023/09/11 11:51:03;;;;;;;4.28;3.88;;;44.90;38.00;;;;;;5053283;28;20039;-19
2023/09/11 11:53:32;;;;;;;4.47;4.07;;;44.90;37.90;;;;;;5050368;28;20143;-19
2023/09/11 11:55:58;;;;;;;4.18;3.78;;;45.00;37.60;;;;;;5035128;28;20051;-19
2023/09/11 11:58:25;;;;;;;4.40;4.00;;;45.10;37.50;;;;;;5057628;28;20021;-19
2023/09/11 12:00:58;;;;;;;4.50;4.13;;;45.10;37.30;;;;;;5035543;28;20222;-20
2023/09/11 12:03:25;;;;;;;5.22;4.22;;;45.10;36.40;;;;;;5057281;28;20027;-19
2023/09/11 12:05:51;;;;;;;4.45;4.05;;;45.10;36.90;;;;;;5054363;28;20074;-20
2023/09/11 12:08:17;;;;;;;4.87;3.90;;;45.10;36.80;;;;;;5068561;28;20363;-19
2023/09/11 12:10:50;;;;;;;4.13;3.83;;;45.10;36.60;;;;;;5048590;28;20024;-19
2023/09/11 12:13:17;;;;;;;4.40;3.88;;;45.10;36.00;;;;;;5040429;28;20036;-16
2023/09/11 12:15:43;;;;;;;4.32;4.03;;;45.10;36.50;;;;;;5041818;28;20052;-18
2023/09/11 12:18:13;;;;;;;3.85;3.50;;;45.20;36.60;;;;;;5056992;28;20040;-17
2023/09/11 12:20:50;;;;;;;4.10;3.70;;;45.20;35.20;;;;;;5059145;28;20058;-17
2023/09/11 12:23:16;;;;;;;4.50;4.10;;;45.20;34.50;;;;;;5055822;28;20032;-16
2023/09/11 12:25:42;;;;;;;4.20;3.80;;;45.20;35.50;;;;;;5050071;28;20072;-18
2023/09/11 12:28:08;;;;;;;4.00;3.60;;;45.20;35.40;;;;;;5049765;28;20098;-16
2023/09/11 12:30:34;;;;;;;4.05;3.67;;;45.20;35.10;;;;;;5035494;28;20032;-17
2023/09/11 12:33:00;;;;;;;4.07;3.78;;;45.20;35.20;;;;;;5061337;28;20085;-16
2023/09/11 12:35:31;;;;;;;3.90;2.87;;;45.20;35.40;;;;;;5055721;28;20036;-16
2023/09/11 12:37:57;;;;;;;3.60;3.30;;;45.10;34.30;;;;;;5051489;28;20217;-16
2023/09/11 12:40:23;;;;;;;4.13;3.40;;;45.00;34.60;;;;;;5058982;28;20035;-17
2023/09/11 12:42:49;;;;;;;3.47;3.17;;;44.90;34.40;;;;;;5048430;28;20036;-16
2023/09/11 12:45:15;;;;;;;3.27;2.97;;;44.80;34.60;;;;;;5060381;28;20036;-16
2023/09/11 12:47:41;;;;;;;3.92;3.25;;;44.70;34.70;;;;;;5034802;28;20025;-17
2023/09/11 12:50:08;;;;;;;3.33;3.03;;;44.70;35.00;;;;;;5048107;28;20683;-16